createdAt,value
2018-12-31T00:01:42.748Z,50.03
2018-12-31T00:04:22.524Z,48.67
2018-12-31T00:06:58.465Z,45.80
2018-12-31T00:09:40.042Z,49.63
2018-12-31T00:12:14.267Z,52.97
2018-12-31T00:14:47.975Z,48.50
2018-12-31T00:17:21.251Z,55.10
2018-12-31T00:19:55.241Z,50.70
2018-12-31T00:22:29.574Z,50.27
2018-12-31T00:25:41.337Z,48.27
2018-12-31T00:28:55.963Z,48.37
2018-12-31T00:33:42.193Z,41.07
2018-12-31T00:34:47.363Z,46.63
2018-12-31T00:37:49.703Z,50.50
2018-12-31T00:40:53.758Z,55.93
2018-12-31T00:43:32.287Z,45.13
2018-12-31T00:46:30.041Z,41.60
2018-12-31T00:48:57.527Z,43.33
2018-12-31T00:51:35.347Z,46.53
2018-12-31T00:54:18.327Z,43.83
2018-12-31T00:56:53.471Z,45.13
2018-12-31T01:00:06.387Z,43.67
2018-12-31T01:02:48.339Z,49.67
2018-12-31T01:05:21.941Z,45.13
2018-12-31T01:07:55.623Z,49.10
2018-12-31T01:10:30.487Z,50.30
2018-12-31T01:13:04.704Z,48.10
2018-12-31T01:15:47.275Z,50.73
2018-12-31T01:18:20.997Z,51.13
2018-12-31T01:20:56.874Z,50.27
2018-12-31T01:23:57.888Z,55.07
2018-12-31T01:26:27.711Z,55.70
2018-12-31T01:29:03.659Z,54.00
2018-12-31T02:02:08.071Z,58.93
2018-12-31T02:08:44.863Z,56.37
2018-12-31T02:12:24.473Z,50.80
2018-12-31T02:15:12.280Z,56.50
2018-12-31T02:32:21.435Z,56.93
2018-12-31T02:34:56.038Z,59.37
2018-12-31T02:37:31.367Z,65.60
2018-12-31T02:40:05.335Z,61.30
2018-12-31T02:55:09.851Z,60.17
2018-12-31T02:57:45.208Z,60.43
2018-12-31T03:00:19.439Z,53.33
2018-12-31T03:02:55.265Z,59.93
2018-12-31T03:05:32.427Z,54.73
2018-12-31T03:08:05.766Z,55.93
2018-12-31T03:33:49.754Z,45.73
2018-12-31T03:44:48.310Z,48.40
2018-12-31T03:47:23.763Z,55.63
2018-12-31T03:50:45.403Z,45.10
2018-12-31T03:54:05.879Z,51.50
2018-12-31T03:56:39.872Z,53.00
2018-12-31T03:59:19.316Z,55.10
2018-12-31T04:02:10.098Z,57.97
2018-12-31T04:15:41.690Z,57.07
2018-12-31T04:18:40.745Z,59.67
2018-12-31T04:21:14.800Z,57.57
2018-12-31T04:23:50.753Z,53.73
2018-12-31T04:26:48.297Z,47.53
2018-12-31T04:29:42.406Z,52.10
2018-12-31T04:32:28.934Z,51.00
2018-12-31T04:35:03.255Z,45.97
2018-12-31T04:38:21.781Z,51.30
2018-12-31T04:40:55.908Z,45.13
2018-12-31T04:43:51.777Z,47.37
2018-12-31T04:46:37.212Z,46.67
2018-12-31T04:49:13.251Z,51.43
2018-12-31T04:52:20.229Z,55.20
2018-12-31T04:55:49.383Z,49.50
2018-12-31T04:58:24.015Z,47.60
2018-12-31T05:01:20.352Z,51.90
2018-12-31T05:11:29.698Z,56.40
2018-12-31T05:15:13.692Z,53.73
2018-12-31T05:18:23.561Z,51.97
2018-12-31T05:22:39.903Z,52.17
2018-12-31T05:30:40.887Z,49.87
2018-12-31T05:42:40.923Z,49.03
2018-12-31T05:45:15.391Z,46.93
2018-12-31T05:47:56.153Z,52.00
2018-12-31T06:01:34.161Z,44.03
2018-12-31T06:04:52.371Z,48.37
2018-12-31T06:35:50.700Z,40.60
2018-12-31T06:44:18.951Z,40.00
2018-12-31T06:52:28.582Z,36.73
2018-12-31T07:24:01.083Z,40.27
2018-12-31T07:30:50.769Z,38.17
2018-12-31T07:33:33.107Z,39.50
2018-12-31T07:36:09.821Z,39.60
2018-12-31T07:38:41.961Z,35.70
2018-12-31T07:41:26.534Z,37.77
2018-12-31T07:44:02.437Z,36.37
2018-12-31T07:46:36.102Z,38.60
2018-12-31T07:49:11.701Z,34.70
2018-12-31T07:51:47.822Z,34.93
2018-12-31T07:54:25.711Z,34.40
2018-12-31T07:56:59.327Z,38.37
2018-12-31T07:59:43.642Z,38.50
2018-12-31T08:13:28.591Z,41.23
2018-12-31T08:15:55.473Z,44.23
2018-12-31T08:18:40.732Z,42.73
2018-12-31T08:26:09.243Z,42.73
2018-12-31T08:34:50.580Z,39.30
2018-12-31T08:37:51.045Z,42.43
2018-12-31T08:40:25.235Z,40.80
2018-12-31T08:54:26.271Z,41.00
2018-12-31T08:57:19.368Z,47.60
2018-12-31T09:03:27.564Z,44.70
2018-12-31T09:06:07.619Z,46.57
2018-12-31T09:08:57.283Z,46.00
2018-12-31T09:16:09.580Z,42.20
2018-12-31T09:18:44.654Z,48.50
2018-12-31T09:21:37.316Z,41.53
2018-12-31T09:24:13.753Z,36.83
2018-12-31T09:26:46.589Z,42.07
2018-12-31T09:33:07.243Z,33.63
2018-12-31T09:35:43.893Z,37.70
2018-12-31T09:38:58.417Z,34.70
2018-12-31T09:41:05.002Z,34.73
2018-12-31T09:43:44.820Z,32.13
2018-12-31T09:57:26.116Z,34.47
2018-12-31T10:00:11.951Z,35.30
2018-12-31T10:02:46.359Z,36.23
2018-12-31T10:05:29.202Z,35.30
2018-12-31T10:08:11.409Z,41.70
2018-12-31T10:11:39.321Z,36.90
2018-12-31T10:15:02.434Z,34.73
2018-12-31T10:28:58.886Z,33.23
2018-12-31T10:31:50.259Z,36.60
2018-12-31T10:35:07.009Z,39.30
2018-12-31T11:03:20.396Z,30.23
2018-12-31T11:06:21.234Z,36.40
2018-12-31T11:09:03.160Z,29.80
2018-12-31T11:12:41.315Z,33.10
2018-12-31T11:19:14.549Z,29.10
2018-12-31T11:22:16.906Z,30.87
2018-12-31T11:55:49.854Z,47.33
2018-12-31T12:01:32.104Z,40.10
2018-12-31T12:02:00.572Z,43.90
2018-12-31T12:04:43.642Z,42.47
2018-12-31T12:07:51.623Z,48.77
2018-12-31T12:11:19.254Z,52.03
2018-12-31T12:13:30.818Z,61.73
2018-12-31T12:16:19.536Z,62.80
2018-12-31T12:18:53.937Z,62.77
2018-12-31T12:21:32.496Z,59.40
2018-12-31T12:24:08.824Z,51.50
2018-12-31T12:26:42.746Z,50.03
2018-12-31T12:29:21.765Z,38.97
2018-12-31T12:32:01.587Z,34.27
2018-12-31T12:47:34.249Z,24.07
2018-12-31T12:50:07.647Z,23.73
2018-12-31T12:52:45.902Z,23.13
2018-12-31T12:55:20.025Z,23.17
2018-12-31T12:57:53.321Z,22.87
2018-12-31T13:02:14.183Z,24.00
2018-12-31T13:03:54.568Z,21.53
2018-12-31T13:06:36.955Z,21.37
2018-12-31T13:09:13.752Z,25.20
2018-12-31T13:12:19.592Z,21.97
2018-12-31T13:16:55.809Z,23.40
2018-12-31T13:19:06.375Z,24.80
2018-12-31T13:21:38.654Z,23.70
2018-12-31T13:24:12.269Z,19.27
2018-12-31T13:37:52.905Z,34.80
2018-12-31T13:40:26.310Z,27.43
2018-12-31T13:55:41.854Z,30.70
2018-12-31T13:58:44.199Z,29.23
2018-12-31T14:12:11.988Z,34.57
2018-12-31T14:14:47.754Z,33.27
2018-12-31T14:17:23.692Z,35.13
2018-12-31T14:20:18.249Z,35.97
2018-12-31T14:22:54.834Z,38.27
2018-12-31T14:25:28.717Z,35.83
2018-12-31T14:28:05.561Z,32.83
2018-12-31T14:30:41.133Z,38.20
2018-12-31T14:33:16.536Z,37.90
2018-12-31T14:36:08.571Z,38.77
2018-12-31T14:38:58.821Z,48.83
2018-12-31T14:41:32.711Z,57.93
2018-12-31T14:44:06.312Z,54.60
2018-12-31T14:46:41.659Z,62.30
2018-12-31T14:49:15.232Z,59.03
2018-12-31T14:52:04.904Z,71.53
2018-12-31T14:54:39.028Z,73.60
2018-12-31T14:57:13.637Z,68.13
2018-12-31T14:59:50.292Z,65.00
2018-12-31T15:02:23.618Z,69.43
2018-12-31T15:16:00.054Z,72.27
2018-12-31T15:18:33.986Z,70.93
2018-12-31T15:21:10.877Z,67.03
2018-12-31T15:23:51.147Z,66.13
2018-12-31T15:26:26.569Z,78.40
2018-12-31T15:29:01.759Z,64.77
2018-12-31T15:31:36.461Z,75.93
2018-12-31T15:34:10.893Z,66.70
2018-12-31T15:36:44.281Z,69.30
2018-12-31T15:39:19.879Z,60.70
2018-12-31T15:42:10.187Z,65.90
2018-12-31T15:48:58.821Z,62.10
2018-12-31T16:02:41.665Z,67.53
2018-12-31T16:05:15.150Z,66.00
2018-12-31T16:07:50.172Z,67.13
2018-12-31T16:10:24.325Z,63.07
2018-12-31T16:12:59.304Z,86.23
2018-12-31T16:15:33.368Z,69.50
2018-12-31T16:18:07.833Z,54.40
2018-12-31T16:20:46.246Z,50.43
2018-12-31T16:23:20.699Z,54.20
2018-12-31T16:36:36.549Z,33.53
2018-12-31T16:39:25.631Z,28.17
2018-12-31T16:41:58.980Z,31.20
2018-12-31T16:44:38.237Z,31.93
2018-12-31T16:47:32.999Z,37.07
2018-12-31T16:50:08.317Z,35.70
2018-12-31T16:52:51.026Z,39.77
2018-12-31T16:55:24.467Z,37.03
2018-12-31T17:08:40.360Z,36.37
2018-12-31T17:11:14.063Z,35.20
2018-12-31T17:13:47.958Z,38.73
2018-12-31T17:16:46.033Z,38.77
2018-12-31T17:20:08.722Z,30.83
2018-12-31T17:22:43.423Z,37.00
2018-12-31T17:26:12.245Z,37.07
2018-12-31T17:28:45.699Z,31.97
2018-12-31T17:31:25.759Z,30.33
2018-12-31T17:34:05.950Z,44.67
2018-12-31T17:36:40.717Z,32.13
2018-12-31T17:42:46.635Z,26.60
2018-12-31T17:45:23.328Z,34.67
2018-12-31T17:47:55.667Z,30.13
2018-12-31T17:50:30.747Z,30.80
2018-12-31T17:53:04.536Z,27.40
2018-12-31T17:55:38.057Z,35.27
2018-12-31T17:58:12.185Z,31.87
2018-12-31T18:00:47.036Z,29.57
2018-12-31T18:03:21.858Z,25.10
2018-12-31T18:06:08.858Z,22.67
2018-12-31T18:08:43.650Z,23.00
2018-12-31T18:11:17.836Z,22.23
2018-12-31T18:13:52.768Z,20.03
2018-12-31T18:16:27.447Z,21.27
2018-12-31T18:19:00.949Z,19.70
2018-12-31T18:32:14.606Z,20.13
2018-12-31T18:34:48.477Z,19.50
2018-12-31T18:37:23.157Z,18.93
2018-12-31T18:39:58.241Z,18.10
2018-12-31T18:42:32.273Z,18.20
2018-12-31T18:45:06.261Z,14.97
2018-12-31T18:47:51.189Z,21.23
2018-12-31T18:50:24.593Z,20.73
2018-12-31T18:52:58.149Z,17.00
2018-12-31T18:55:32.198Z,20.90
2018-12-31T18:58:17.001Z,20.13
2018-12-31T19:00:50.116Z,18.77
2018-12-31T19:03:41.365Z,21.97
2018-12-31T19:06:16.689Z,24.93
2018-12-31T19:08:51.058Z,20.70
2018-12-31T19:11:25.123Z,20.00
2018-12-31T19:25:16.421Z,21.07
2018-12-31T19:27:50.747Z,18.73
2018-12-31T19:30:44.500Z,20.37
2018-12-31T19:33:19.337Z,16.80
2018-12-31T19:35:52.819Z,18.53
2018-12-31T19:38:26.956Z,16.63
2018-12-31T19:41:00.949Z,18.00
2018-12-31T19:43:33.693Z,15.63
2018-12-31T19:46:12.584Z,14.83
2018-12-31T19:48:46.732Z,18.57
2018-12-31T20:01:58.663Z,24.57
2018-12-31T20:04:38.280Z,17.07
2018-12-31T20:10:49.797Z,19.37
2018-12-31T20:24:05.882Z,17.03
2018-12-31T20:26:39.690Z,19.23
2018-12-31T20:29:14.238Z,18.07
2018-12-31T20:31:51.769Z,20.43
2018-12-31T20:34:25.735Z,22.37
2018-12-31T20:36:59.824Z,20.77
2018-12-31T20:39:57.181Z,24.13
2018-12-31T20:42:31.394Z,24.67
2018-12-31T20:56:04.712Z,14.60
2018-12-31T20:58:40.124Z,17.97
2018-12-31T21:01:15.827Z,14.93
2018-12-31T21:03:52.189Z,12.93
2018-12-31T21:06:27.113Z,16.03
2018-12-31T21:09:18.769Z,11.47
2018-12-31T21:11:52.436Z,16.60
2018-12-31T21:14:25.495Z,13.20
2018-12-31T21:17:05.382Z,9.97
2018-12-31T21:19:39.853Z,13.17
2018-12-31T21:22:34.721Z,9.87
2018-12-31T21:25:33.251Z,14.40
2018-12-31T21:28:11.858Z,12.60
2018-12-31T21:30:45.460Z,13.27
2018-12-31T21:33:19.953Z,11.93
2018-12-31T21:35:53.356Z,13.60
2018-12-31T21:38:27.675Z,14.40
2018-12-31T21:41:00.828Z,14.10
2018-12-31T21:43:34.899Z,16.03
2018-12-31T21:46:07.007Z,14.37
2018-12-31T21:48:52.022Z,14.47
2018-12-31T21:51:26.349Z,14.07
2018-12-31T21:54:00.184Z,15.27
2018-12-31T22:07:14.281Z,11.10
2018-12-31T22:09:48.849Z,14.27
2018-12-31T22:24:09.656Z,12.30
2018-12-31T22:26:46.306Z,12.13
2018-12-31T22:29:20.598Z,12.47
2018-12-31T22:31:58.958Z,12.17
2018-12-31T22:34:33.192Z,12.47
2018-12-31T22:37:05.758Z,16.90
2018-12-31T22:40:43.217Z,14.37
2018-12-31T22:43:36.828Z,12.70
2018-12-31T22:45:57.067Z,10.93
2018-12-31T22:48:37.861Z,45.13
2018-12-31T22:51:27.845Z,13.83
2018-12-31T22:54:03.306Z,14.63
2018-12-31T22:56:55.854Z,11.73
2018-12-31T22:59:46.202Z,16.70
2018-12-31T23:02:19.798Z,16.23
2018-12-31T23:04:52.833Z,15.50
2018-12-31T23:07:50.082Z,17.43
2018-12-31T23:10:23.530Z,18.33
2018-12-31T23:13:01.052Z,22.83
2018-12-31T23:15:37.775Z,20.13
2018-12-31T23:18:22.738Z,24.63
2018-12-31T23:21:16.080Z,21.13
2018-12-31T23:23:49.763Z,22.50
2018-12-31T23:26:23.307Z,17.70
2018-12-31T23:28:58.553Z,20.10
2018-12-31T23:31:32.853Z,21.63
2018-12-31T23:34:27.690Z,22.23
2018-12-31T23:37:01.341Z,22.47
2018-12-31T23:39:35.481Z,25.10
2018-12-31T23:42:09.531Z,24.37
2018-12-31T23:44:53.145Z,27.60
2018-12-31T23:47:27.291Z,29.27
2018-12-31T23:50:00.956Z,26.83
2018-12-31T23:52:40.650Z,30.57
2018-12-31T23:55:14.958Z,38.07
2018-12-31T23:58:02.330Z,43.87
